Time;durP1;ratioP1;P1;durP2;ratioP2;P2;SDS_P1;SDS_P2;PMS_P1;PMS_P2;Temp;Humidity;BMP_temperature;BMP_pressure;BME280_temperature;BME280_humidity;BME280_pressure;Samples;Min_cycle;Max_cycle;Signal;HPM_P1;HPM_P2
2022/05/13 00:01:19;;;;;;;8.87;6.63;;;17.30;83.40;;;;;;4984702;28;20275;-68
2022/05/13 00:03:45;;;;;;;8.00;7.03;;;17.30;83.20;;;;;;5012489;28;20205;-68
2022/05/13 00:06:10;;;;;;;7.90;7.10;;;17.30;83.40;;;;;;5012257;28;20193;-69
2022/05/13 00:08:36;;;;;;;9.23;7.10;;;17.30;83.60;;;;;;4995981;28;20191;-69
2022/05/13 00:11:04;;;;;;;7.83;6.37;;;17.30;83.60;;;;;;4996585;28;20211;-69
2022/05/13 00:13:30;;;;;;;7.47;6.67;;;17.30;83.60;;;;;;5048510;28;20197;-69
2022/05/13 00:15:56;;;;;;;7.27;6.63;;;17.30;83.60;;;;;;5015794;28;20202;-67
2022/05/13 00:18:22;;;;;;;6.93;6.23;;;17.30;83.60;;;;;;4993118;28;20566;-67
2022/05/13 00:20:48;;;;;;;12.50;7.00;;;17.30;83.60;;;;;;4999341;28;20180;-68
2022/05/13 00:23:14;;;;;;;7.70;6.57;;;17.30;83.80;;;;;;5015162;28;20184;-67
2022/05/13 00:25:41;;;;;;;12.47;7.07;;;17.30;83.90;;;;;;5013458;28;20212;-68
2022/05/13 00:28:08;;;;;;;7.67;6.93;;;17.30;84.00;;;;;;4998165;28;20251;-68
2022/05/13 00:30:37;;;;;;;10.63;6.67;;;17.30;84.10;;;;;;5015142;28;20190;-69
2022/05/13 00:33:03;;;;;;;7.77;7.00;;;17.30;84.10;;;;;;5013728;28;20188;-69
2022/05/13 00:35:29;;;;;;;9.90;7.60;;;17.20;84.10;;;;;;5015427;28;20184;-69
2022/05/13 00:37:55;;;;;;;10.43;7.00;;;17.30;84.10;;;;;;4995418;28;20192;-69
2022/05/13 00:40:22;;;;;;;9.27;7.13;;;17.30;84.30;;;;;;5014255;28;20240;-69
2022/05/13 00:42:49;;;;;;;8.23;6.53;;;17.30;84.40;;;;;;5023234;28;20181;-68
2022/05/13 00:45:16;;;;;;;8.60;7.27;;;17.20;84.40;;;;;;5028717;28;20240;-68
2022/05/13 00:47:44;;;;;;;7.73;6.93;;;17.20;84.30;;;;;;4993508;28;20189;-69
2022/05/13 00:50:13;;;;;;;9.47;6.40;;;17.20;84.20;;;;;;4995052;28;20275;-66
2022/05/13 00:52:46;;;;;;;8.70;7.00;;;17.20;84.20;;;;;;4995413;28;20168;-66
2022/05/13 00:55:18;;;;;;;7.80;7.00;;;17.10;84.20;;;;;;4995656;28;20180;-67
2022/05/13 00:57:44;;;;;;;8.33;7.00;;;17.10;84.30;;;;;;5006431;28;20188;-66
2022/05/13 01:00:13;;;;;;;10.27;6.77;;;17.10;84.20;;;;;;4978892;28;20192;-66
2022/05/13 01:02:43;;;;;;;11.23;7.33;;;17.10;84.20;;;;;;5001004;28;20270;-65
2022/05/13 01:05:10;;;;;;;10.67;7.23;;;17.10;84.40;;;;;;5014611;28;20281;-65
2022/05/13 01:07:36;;;;;;;8.00;7.13;;;17.10;84.50;;;;;;4998280;28;20180;-65
2022/05/13 01:10:07;;;;;;;15.80;7.73;;;17.10;84.70;;;;;;4998617;28;20271;-68
2022/05/13 01:12:36;;;;;;;9.77;7.00;;;17.10;84.60;;;;;;4996160;28;20194;-67
2022/05/13 01:15:09;;;;;;;11.47;7.70;;;17.10;84.70;;;;;;5010040;28;20208;-67
2022/05/13 01:20:26;;;;;;;9.80;7.17;;;17.00;84.60;;;;;;4999270;28;20218;-67
2022/05/13 01:22:56;;;;;;;7.57;6.80;;;17.00;84.60;;;;;;5014482;28;20184;-67
2022/05/13 01:25:25;;;;;;;7.40;6.67;;;17.00;84.70;;;;;;5012221;28;20204;-67
2022/05/13 01:27:52;;;;;;;7.90;7.20;;;17.00;84.90;;;;;;4994383;28;20188;-67
2022/05/13 01:30:26;;;;;;;10.30;6.53;;;17.00;85.00;;;;;;4995031;28;20173;-67
2022/05/13 01:32:53;;;;;;;7.87;6.87;;;17.00;85.00;;;;;;5011504;28;20187;-68
2022/05/13 01:35:19;;;;;;;10.53;7.23;;;17.00;85.10;;;;;;5001009;28;20191;-67
2022/05/13 01:37:45;;;;;;;8.27;6.50;;;17.00;84.90;;;;;;5030831;28;20172;-67
2022/05/13 01:40:12;;;;;;;10.40;6.90;;;17.00;85.00;;;;;;5013493;28;20235;-67
2022/05/13 01:42:38;;;;;;;10.43;7.37;;;17.00;85.00;;;;;;4997716;28;20180;-68
2022/05/13 01:45:05;;;;;;;9.67;6.03;;;17.00;85.10;;;;;;5014051;28;20207;-67
2022/05/13 01:47:31;;;;;;;8.40;6.47;;;17.00;85.10;;;;;;5011058;28;20208;-68
2022/05/13 01:49:57;;;;;;;8.73;7.40;;;17.10;85.00;;;;;;4995870;28;20270;-67
2022/05/13 01:52:23;;;;;;;8.37;7.00;;;17.10;84.80;;;;;;4993479;28;20211;-67
2022/05/13 01:54:49;;;;;;;7.77;6.80;;;17.10;85.00;;;;;;4994298;28;20187;-67
2022/05/13 01:57:15;;;;;;;8.37;7.33;;;17.10;85.00;;;;;;5015961;28;20200;-67
2022/05/13 01:59:40;;;;;;;9.47;6.97;;;17.10;84.90;;;;;;4993062;28;20188;-67
2022/05/13 02:02:06;;;;;;;8.27;7.57;;;17.10;84.90;;;;;;4977082;28;20189;-67
2022/05/13 02:04:32;;;;;;;8.03;6.90;;;17.20;84.80;;;;;;4991456;28;20214;-67
2022/05/13 02:06:58;;;;;;;8.03;7.23;;;17.10;84.80;;;;;;5009687;28;20189;-67
2022/05/13 02:09:24;;;;;;;10.33;7.17;;;17.10;85.00;;;;;;4999238;28;20212;-67
2022/05/13 02:11:50;;;;;;;9.27;7.33;;;17.10;85.10;;;;;;5013014;28;20179;-67
2022/05/13 02:14:17;;;;;;;7.90;7.10;;;17.10;85.20;;;;;;5029507;28;20197;-67
2022/05/13 02:16:44;;;;;;;8.57;7.10;;;17.10;85.20;;;;;;4997029;28;20439;-68
2022/05/13 02:19:10;;;;;;;9.03;7.50;;;17.10;85.20;;;;;;4994947;28;20218;-70
2022/05/13 02:21:36;;;;;;;8.17;7.37;;;17.20;85.10;;;;;;4993995;28;20255;-70
2022/05/13 02:24:03;;;;;;;10.63;7.33;;;17.20;85.10;;;;;;4977767;28;20200;-69
2022/05/13 02:26:29;;;;;;;8.57;7.67;;;17.20;84.90;;;;;;4993850;28;20180;-70
2022/05/13 02:28:55;;;;;;;9.13;7.27;;;17.30;85.10;;;;;;5014611;28;20211;-69
2022/05/13 02:31:20;;;;;;;7.93;7.17;;;17.30;85.00;;;;;;5027586;28;20203;-69
2022/05/13 02:33:46;;;;;;;7.77;6.97;;;17.30;84.80;;;;;;5019259;28;20185;-68
2022/05/13 02:36:13;;;;;;;9.23;6.73;;;17.30;84.70;;;;;;4996526;28;20187;-69
2022/05/13 02:38:39;;;;;;;10.87;7.47;;;17.30;84.60;;;;;;4997199;28;20183;-68
2022/05/13 02:41:13;;;;;;;8.13;7.33;;;17.30;84.60;;;;;;4995654;28;20262;-68
2022/05/13 02:43:52;;;;;;;7.93;7.20;;;17.40;84.70;;;;;;5001270;28;20176;-68
2022/05/13 02:46:20;;;;;;;10.90;8.03;;;17.40;84.30;;;;;;5017108;28;20176;-68
2022/05/13 02:48:46;;;;;;;7.50;6.70;;;17.40;84.10;;;;;;5016690;28;20187;-68
2022/05/13 02:51:14;;;;;;;7.50;6.80;;;17.40;84.20;;;;;;5000220;28;20270;-68
2022/05/13 02:53:40;;;;;;;8.07;6.97;;;17.50;82.90;;;;;;4998860;28;20184;-68
2022/05/13 02:56:07;;;;;;;8.73;7.17;;;17.50;82.80;;;;;;4998487;28;20185;-68
2022/05/13 02:58:36;;;;;;;7.63;6.93;;;17.60;82.30;;;;;;5031502;28;20187;-68
2022/05/13 03:01:04;;;;;;;9.10;7.73;;;17.70;82.10;;;;;;5015743;28;20223;-67
2022/05/13 03:03:30;;;;;;;8.80;7.43;;;17.70;81.90;;;;;;4999927;28;20192;-67
2022/05/13 03:05:57;;;;;;;8.80;6.80;;;17.70;81.40;;;;;;5032993;28;20203;-66
2022/05/13 03:08:22;;;;;;;7.63;6.83;;;17.80;80.20;;;;;;5000096;28;20203;-67
2022/05/13 03:10:48;;;;;;;10.37;7.00;;;17.90;78.80;;;;;;5015598;28;20195;-67
2022/05/13 03:13:18;;;;;;;7.20;6.37;;;17.90;78.70;;;;;;5017282;28;20187;-67
2022/05/13 03:15:44;;;;;;;7.23;6.53;;;18.00;79.10;;;;;;5016178;28;20175;-67
2022/05/13 03:18:09;;;;;;;8.47;6.70;;;18.00;79.50;;;;;;5014297;28;20188;-66
2022/05/13 03:20:36;;;;;;;7.37;6.63;;;18.00;79.90;;;;;;5000169;28;20188;-66
2022/05/13 03:23:02;;;;;;;10.63;7.60;;;18.00;78.90;;;;;;5007996;28;20211;-66
2022/05/13 03:25:28;;;;;;;8.10;6.90;;;18.10;79.30;;;;;;5049619;28;20257;-66
2022/05/13 03:27:54;;;;;;;8.43;7.37;;;18.10;79.90;;;;;;5016313;28;20215;-66
2022/05/13 03:30:22;;;;;;;7.43;6.67;;;18.00;79.80;;;;;;5032417;28;20196;-67
2022/05/13 03:32:48;;;;;;;8.70;7.00;;;18.00;79.90;;;;;;5015825;28;20210;-66
2022/05/13 03:35:15;;;;;;;10.53;7.73;;;18.10;78.50;;;;;;5015479;28;20187;-67
2022/05/13 03:37:41;;;;;;;9.40;6.73;;;18.10;78.20;;;;;;4999612;28;20272;-67
2022/05/13 03:40:07;;;;;;;7.63;6.93;;;18.20;78.60;;;;;;5032405;28;20237;-67
2022/05/13 03:42:36;;;;;;;7.97;7.00;;;18.20;78.30;;;;;;5015738;28;20234;-67
2022/05/13 03:45:06;;;;;;;8.47;6.73;;;18.20;78.70;;;;;;5032377;28;20226;-67
2022/05/13 03:47:32;;;;;;;8.60;6.20;;;18.20;77.20;;;;;;5031542;28;20192;-69
2022/05/13 03:49:58;;;;;;;8.23;7.43;;;18.30;77.10;;;;;;5015574;28;20199;-66
2022/05/13 03:52:24;;;;;;;8.40;7.27;;;18.30;77.40;;;;;;4999072;28;20201;-65
2022/05/13 03:54:50;;;;;;;6.73;6.23;;;18.30;78.20;;;;;;5031689;28;20230;-66
2022/05/13 03:57:15;;;;;;;7.60;6.90;;;18.30;76.90;;;;;;5031971;28;20223;-66
2022/05/13 03:59:41;;;;;;;6.43;5.83;;;18.30;76.00;;;;;;5032775;28;20210;-66
2022/05/13 04:02:07;;;;;;;7.43;6.63;;;18.30;76.10;;;;;;5023849;28;20206;-67
2022/05/13 04:08:56;;;;;;;6.67;6.07;;;18.30;76.50;;;;;;4997661;28;20231;-67
2022/05/13 04:10:06;;;;;;;7.33;6.63;;;18.40;76.70;;;;;;5014355;28;20202;-67
2022/05/13 04:18:00;;;;;;;9.33;6.27;;;18.40;78.40;;;;;;5009987;28;20200;-66
2022/05/13 04:20:26;;;;;;;7.33;6.20;;;18.30;78.00;;;;;;4996051;28;20180;-67
2022/05/13 04:22:52;;;;;;;7.90;6.63;;;18.30;77.60;;;;;;5025896;28;20246;-67
2022/05/13 04:25:19;;;;;;;7.07;6.33;;;18.20;78.20;;;;;;5013935;28;20230;-68
2022/05/13 04:27:45;;;;;;;6.23;5.67;;;18.20;78.00;;;;;;5015228;28;20191;-69
2022/05/13 04:30:12;;;;;;;9.67;6.20;;;18.20;78.40;;;;;;5015573;28;20176;-68
2022/05/13 04:32:38;;;;;;;6.73;5.97;;;18.20;78.70;;;;;;5014389;28;20250;-67
2022/05/13 04:35:04;;;;;;;7.30;5.97;;;18.10;78.50;;;;;;4998389;28;20286;-66
2022/05/13 04:37:29;;;;;;;6.53;5.47;;;18.10;78.50;;;;;;4998211;28;20246;-67
2022/05/13 04:39:55;;;;;;;7.00;5.83;;;18.10;78.30;;;;;;5013030;28;20240;-67
2022/05/13 04:45:06;;;;;;;6.03;5.50;;;18.00;79.00;;;;;;5013856;28;20251;-66
2022/05/13 04:50:16;;;;;;;6.67;5.63;;;18.10;78.60;;;;;;5013729;28;20192;-66
2022/05/13 04:52:42;;;;;;;6.57;5.40;;;18.10;79.30;;;;;;5027845;28;20189;-68
2022/05/13 04:55:09;;;;;;;6.33;5.00;;;18.20;79.50;;;;;;4995049;28;20250;-68
2022/05/13 04:57:35;;;;;;;6.50;5.93;;;18.20;79.60;;;;;;4995774;28;20279;-68
2022/05/13 05:00:00;;;;;;;5.20;4.80;;;18.30;79.10;;;;;;5011608;28;20291;-69
2022/05/13 05:02:28;;;;;;;6.00;5.43;;;18.30;79.20;;;;;;5011269;28;20189;-65
2022/05/13 05:04:53;;;;;;;5.50;5.00;;;18.40;79.10;;;;;;5028497;28;20226;-70
2022/05/13 05:07:19;;;;;;;4.57;4.17;;;18.50;79.30;;;;;;5013240;28;20180;-68
2022/05/13 05:09:45;;;;;;;6.77;5.60;;;18.50;79.20;;;;;;5024523;28;20225;-67
2022/05/13 05:12:10;;;;;;;7.23;5.57;;;18.60;79.20;;;;;;4995947;28;20278;-67
2022/05/13 05:14:36;;;;;;;6.53;5.03;;;18.60;79.50;;;;;;5044706;28;20192;-66
2022/05/13 05:17:02;;;;;;;5.83;5.33;;;18.60;79.00;;;;;;5012678;28;20200;-67
2022/05/13 05:19:27;;;;;;;6.13;5.20;;;18.70;78.70;;;;;;5010798;28;20242;-66
2022/05/13 05:21:53;;;;;;;5.80;5.07;;;18.70;79.10;;;;;;4996103;28;20258;-67
2022/05/13 05:24:19;;;;;;;5.93;5.23;;;18.70;77.10;;;;;;4994776;28;20205;-66
2022/05/13 05:26:44;;;;;;;7.13;4.57;;;18.70;77.10;;;;;;4995713;28;20204;-66
2022/05/13 05:29:10;;;;;;;6.80;5.50;;;18.70;77.20;;;;;;5043870;28;20202;-68
2022/05/13 05:31:36;;;;;;;5.93;5.37;;;18.70;77.50;;;;;;5027976;28;20192;-68
2022/05/13 05:34:02;;;;;;;6.17;5.57;;;18.70;76.60;;;;;;5025769;28;20190;-68
2022/05/13 05:36:27;;;;;;;6.67;5.50;;;18.80;77.40;;;;;;5028526;28;20215;-68
2022/05/13 05:38:53;;;;;;;6.10;5.50;;;18.90;74.80;;;;;;5011539;28;20214;-68
2022/05/13 05:41:19;;;;;;;7.07;5.60;;;18.90;74.90;;;;;;5012230;28;20326;-68
2022/05/13 05:43:44;;;;;;;7.00;5.50;;;18.90;73.70;;;;;;5027185;28;20218;-68
2022/05/13 05:46:10;;;;;;;8.00;5.90;;;19.00;73.20;;;;;;5045640;28;20176;-68
2022/05/13 05:48:36;;;;;;;8.43;6.33;;;19.00;73.70;;;;;;5027305;28;20194;-68
2022/05/13 05:51:02;;;;;;;9.87;6.33;;;19.10;73.00;;;;;;5027440;28;20179;-67
2022/05/13 05:59:00;;;;;;;10.10;7.20;;;19.10;73.70;;;;;;5008096;28;20198;-67
2022/05/13 06:01:27;;;;;;;12.30;7.27;;;19.10;73.30;;;;;;5010931;28;20195;-67
2022/05/13 06:03:53;;;;;;;10.73;6.90;;;19.20;73.20;;;;;;5010405;28;20192;-67
2022/05/13 06:06:19;;;;;;;10.80;7.20;;;19.10;73.30;;;;;;5027159;28;20188;-67
2022/05/13 06:08:45;;;;;;;9.30;6.43;;;19.20;74.50;;;;;;5007415;28;20189;-67
2022/05/13 06:11:11;;;;;;;8.00;7.17;;;19.20;75.20;;;;;;5007214;28;20243;-67
2022/05/13 06:13:37;;;;;;;12.47;7.60;;;19.20;76.50;;;;;;4998380;28;20183;-66
2022/05/13 06:16:03;;;;;;;8.90;6.47;;;19.20;77.30;;;;;;4995056;28;20200;-67
2022/05/13 06:18:29;;;;;;;8.00;5.87;;;19.20;77.90;;;;;;5010493;28;20184;-67
2022/05/13 06:20:55;;;;;;;9.37;6.83;;;19.20;77.20;;;;;;5044220;28;20188;-67
2022/05/13 06:23:20;;;;;;;9.67;7.23;;;19.20;77.80;;;;;;5011900;28;20184;-67
2022/05/13 06:25:46;;;;;;;9.13;6.67;;;19.20;78.10;;;;;;5027258;28;20262;-67
2022/05/13 06:28:11;;;;;;;8.60;5.90;;;19.20;78.10;;;;;;5011249;28;20242;-68
2022/05/13 06:30:38;;;;;;;9.00;6.37;;;19.20;78.20;;;;;;5011248;28;20183;-67
2022/05/13 06:33:05;;;;;;;11.20;7.23;;;19.20;79.00;;;;;;5027811;28;20183;-67
2022/05/13 06:35:33;;;;;;;7.70;6.03;;;19.30;79.40;;;;;;5010326;28;20199;-67
2022/05/13 06:37:59;;;;;;;11.63;6.90;;;19.20;79.50;;;;;;5011402;28;20194;-67
2022/05/13 06:40:25;;;;;;;9.17;5.93;;;19.30;79.70;;;;;;5010123;28;20239;-67
2022/05/13 06:42:52;;;;;;;9.20;6.60;;;19.30;79.60;;;;;;5010864;28;20187;-67
2022/05/13 06:45:18;;;;;;;8.80;5.83;;;19.50;77.80;;;;;;5010657;28;20238;-67
2022/05/13 06:47:44;;;;;;;10.67;6.47;;;19.60;77.00;;;;;;4994137;28;20442;-67
2022/05/13 06:50:16;;;;;;;13.83;10.87;;;19.70;77.10;;;;;;5019283;28;20194;-68
2022/05/13 06:52:42;;;;;;;9.17;8.27;;;19.70;75.10;;;;;;5028147;28;20199;-68
2022/05/13 06:55:09;;;;;;;10.10;7.77;;;19.70;75.50;;;;;;5009618;28;20188;-67
2022/05/13 06:57:34;;;;;;;9.47;7.17;;;19.80;74.00;;;;;;4994580;28;20192;-67
2022/05/13 07:00:00;;;;;;;9.03;6.70;;;19.90;74.20;;;;;;5011767;28;20191;-67
2022/05/13 07:02:27;;;;;;;10.93;6.23;;;19.90;73.60;;;;;;5009456;28;20191;-67
2022/05/13 07:04:53;;;;;;;6.30;5.70;;;20.00;72.80;;;;;;5027525;28;20211;-67
2022/05/13 07:07:18;;;;;;;8.00;5.93;;;20.20;73.10;;;;;;5011329;28;20180;-67
2022/05/13 07:09:44;;;;;;;6.70;5.97;;;20.30;70.40;;;;;;5010587;28;20219;-66
2022/05/13 07:12:10;;;;;;;7.27;6.43;;;20.30;70.50;;;;;;5011671;28;20207;-66
2022/05/13 07:14:37;;;;;;;8.13;6.20;;;20.40;70.30;;;;;;5026319;28;20250;-67
2022/05/13 07:17:04;;;;;;;7.67;5.80;;;20.50;71.70;;;;;;5011469;28;20245;-67
2022/05/13 07:19:30;;;;;;;8.70;6.20;;;20.60;71.20;;;;;;5011467;28;20180;-67
2022/05/13 07:21:56;;;;;;;7.80;6.60;;;20.70;71.10;;;;;;5026040;28;20200;-67
2022/05/13 07:24:21;;;;;;;10.23;8.00;;;20.80;71.10;;;;;;4994526;28;20276;-67
2022/05/13 07:26:49;;;;;;;8.87;7.43;;;20.90;69.50;;;;;;4994397;28;20184;-67
2022/05/13 07:29:15;;;;;;;8.10;6.83;;;20.90;70.70;;;;;;4997116;28;20191;-68
2022/05/13 07:31:40;;;;;;;8.87;6.67;;;21.00;72.40;;;;;;5011105;28;20196;-67
2022/05/13 07:34:07;;;;;;;9.47;7.27;;;21.10;70.40;;;;;;5015120;28;20200;-66
2022/05/13 07:36:33;;;;;;;10.43;7.37;;;21.20;69.00;;;;;;5007675;28;20188;-67
2022/05/13 07:41:43;;;;;;;7.50;6.77;;;21.30;67.60;;;;;;5005987;28;20254;-67
2022/05/13 07:44:09;;;;;;;6.87;6.17;;;21.20;68.60;;;;;;5013508;28;20219;-67
2022/05/13 07:46:38;;;;;;;10.27;7.40;;;21.20;69.00;;;;;;5013444;28;20192;-67
2022/05/13 07:49:05;;;;;;;9.63;7.80;;;21.20;68.40;;;;;;4996622;28;20192;-68
2022/05/13 07:51:31;;;;;;;9.30;8.40;;;21.30;69.30;;;;;;4998682;28;20200;-69
2022/05/13 07:53:56;;;;;;;8.57;7.07;;;21.30;70.40;;;;;;4982029;28;20290;-67
2022/05/13 07:56:22;;;;;;;8.63;6.50;;;21.40;70.10;;;;;;4979837;28;20250;-67
2022/05/13 07:58:48;;;;;;;7.73;6.97;;;21.50;71.30;;;;;;5029253;28;20187;-67
2022/05/13 08:01:14;;;;;;;8.60;7.70;;;21.60;69.10;;;;;;4996784;28;20238;-67
2022/05/13 08:03:41;;;;;;;11.80;6.97;;;21.80;70.00;;;;;;4996739;28;20191;-67
2022/05/13 08:06:08;;;;;;;8.10;6.63;;;21.90;69.70;;;;;;4997616;28;20223;-67
2022/05/13 08:08:42;;;;;;;7.23;6.23;;;21.90;68.70;;;;;;5013663;28;20184;-67
2022/05/13 08:11:15;;;;;;;7.80;6.63;;;22.10;64.70;;;;;;5014713;28;20204;-67
2022/05/13 08:13:41;;;;;;;7.07;6.37;;;22.10;63.80;;;;;;4997484;28;20219;-67
2022/05/13 08:16:11;;;;;;;7.70;6.77;;;22.00;64.90;;;;;;4993150;28;20184;-67
2022/05/13 08:18:37;;;;;;;7.23;6.53;;;21.90;66.30;;;;;;5012960;28;20199;-67
2022/05/13 08:21:03;;;;;;;7.13;6.43;;;21.80;67.40;;;;;;5012238;28;20196;-67
2022/05/13 08:23:29;;;;;;;6.87;6.27;;;21.80;67.80;;;;;;5029271;28;20198;-67
2022/05/13 08:25:55;;;;;;;8.13;7.27;;;21.80;68.00;;;;;;5029536;28;20211;-67
2022/05/13 08:28:23;;;;;;;6.50;5.43;;;21.90;68.80;;;;;;5012775;28;20188;-67
2022/05/13 08:30:48;;;;;;;8.50;7.70;;;21.90;67.80;;;;;;5045087;28;20188;-66
2022/05/13 08:33:14;;;;;;;8.73;6.90;;;22.10;69.10;;;;;;5013133;28;20199;-67
2022/05/13 08:35:57;;;;;;;7.50;5.93;;;22.20;68.90;;;;;;4996136;28;20639;-67
2022/05/13 08:38:26;;;;;;;8.67;7.77;;;22.30;67.80;;;;;;5013099;28;20278;-67
2022/05/13 08:41:12;;;;;;;9.03;7.80;;;22.40;64.10;;;;;;5020219;28;20270;-67
2022/05/13 08:43:47;;;;;;;11.20;7.60;;;22.60;62.30;;;;;;4994541;28;20235;-66
2022/05/13 08:46:16;;;;;;;9.17;7.63;;;22.60;63.70;;;;;;4993778;28;20198;-67
2022/05/13 08:49:22;;;;;;;7.13;6.20;;;22.50;66.50;;;;;;4998762;28;20180;-67
2022/05/13 08:54:58;;;;;;;6.97;5.73;;;22.80;63.70;;;;;;5013726;28;20195;-66
2022/05/13 08:57:31;;;;;;;8.27;6.47;;;22.90;63.60;;;;;;5014167;28;20223;-67
2022/05/13 09:00:07;;;;;;;8.33;6.30;;;22.90;63.00;;;;;;5011348;28;20189;-66
2022/05/13 09:02:43;;;;;;;7.67;6.73;;;22.90;61.60;;;;;;5013459;28;20180;-67
2022/05/13 09:05:21;;;;;;;7.57;5.83;;;23.00;61.10;;;;;;5044370;28;20203;-63
2022/05/13 09:07:47;;;;;;;7.73;7.03;;;23.00;62.50;;;;;;5013072;28;20167;-63
2022/05/13 09:10:14;;;;;;;7.23;6.40;;;23.10;62.00;;;;;;5012352;28;20180;-64
2022/05/13 09:13:07;;;;;;;7.50;6.47;;;23.10;64.20;;;;;;5028424;28;20230;-64
2022/05/13 09:15:40;;;;;;;7.03;6.33;;;23.00;61.80;;;;;;5012015;28;20172;-64
2022/05/13 09:18:17;;;;;;;10.83;6.87;;;23.00;61.90;;;;;;5012464;28;20215;-64
2022/05/13 09:20:51;;;;;;;6.23;5.57;;;23.00;62.20;;;;;;5013323;28;20175;-64
2022/05/13 09:23:18;;;;;;;7.73;6.90;;;23.00;63.30;;;;;;5011640;28;20215;-62
2022/05/13 09:26:10;;;;;;;7.47;6.77;;;23.20;61.90;;;;;;4991988;28;20219;-64
2022/05/13 09:28:58;;;;;;;7.23;6.63;;;23.40;60.80;;;;;;4992552;28;20180;-64
2022/05/13 09:31:27;;;;;;;6.20;5.40;;;23.50;61.60;;;;;;4992859;28;20187;-64
2022/05/13 09:33:53;;;;;;;5.77;5.27;;;23.50;61.60;;;;;;5041912;28;20192;-64
2022/05/13 09:36:19;;;;;;;7.10;6.03;;;23.70;62.30;;;;;;5012291;28;20191;-64
2022/05/13 09:38:54;;;;;;;5.77;5.17;;;23.90;62.30;;;;;;5012046;28;20199;-63
2022/05/13 09:41:27;;;;;;;6.63;5.47;;;24.00;61.60;;;;;;5011850;28;20276;-63
2022/05/13 09:44:13;;;;;;;5.70;5.20;;;24.00;60.70;;;;;;5045055;28;20219;-64
2022/05/13 09:47:07;;;;;;;5.80;5.30;;;24.20;61.50;;;;;;5012420;28;20180;-63
2022/05/13 09:49:36;;;;;;;6.30;5.70;;;24.40;60.30;;;;;;5044303;28;20186;-62
2022/05/13 09:52:11;;;;;;;7.27;6.53;;;24.60;56.10;;;;;;5011137;28;20183;-62
2022/05/13 09:54:47;;;;;;;6.20;5.60;;;24.70;55.40;;;;;;5011828;28;20195;-63
2022/05/13 09:57:28;;;;;;;6.60;6.00;;;24.60;57.00;;;;;;5012320;28;20282;-62
2022/05/13 10:00:04;;;;;;;7.07;5.53;;;24.70;57.10;;;;;;5011720;28;20194;-62
2022/05/13 10:02:39;;;;;;;6.57;5.30;;;24.70;56.90;;;;;;5024276;28;20204;-63
2022/05/13 10:05:11;;;;;;;5.90;5.40;;;24.70;55.40;;;;;;4991724;28;20220;-63
2022/05/13 10:08:01;;;;;;;16.83;5.80;;;24.80;57.10;;;;;;4991792;28;20176;-65
2022/05/13 10:16:18;;;;;;;6.77;5.63;;;25.00;57.30;;;;;;5010941;28;20202;-67
2022/05/13 10:18:53;;;;;;;6.93;6.23;;;25.30;57.20;;;;;;5012800;28;20337;-67
2022/05/13 10:21:36;;;;;;;6.30;5.70;;;25.40;53.20;;;;;;5011611;28;20265;-68
2022/05/13 10:24:07;;;;;;;6.83;6.13;;;25.70;52.90;;;;;;5011178;28;20203;-68
2022/05/13 10:26:38;;;;;;;7.40;6.50;;;25.90;51.80;;;;;;5011496;28;20179;-68
2022/05/13 10:29:12;;;;;;;6.83;6.10;;;25.80;51.10;;;;;;5011357;28;20265;-70
2022/05/13 10:31:41;;;;;;;5.60;5.10;;;25.70;53.30;;;;;;5005015;28;20277;-68
2022/05/13 10:34:28;;;;;;;5.50;5.00;;;25.70;53.10;;;;;;5011095;28;20194;-69
2022/05/13 10:37:08;;;;;;;8.23;6.23;;;25.80;53.80;;;;;;5027502;28;20191;-68
2022/05/13 10:39:58;;;;;;;5.67;5.17;;;25.80;52.30;;;;;;5010648;28;20366;-69
2022/05/13 10:42:47;;;;;;;5.63;5.13;;;26.10;53.90;;;;;;5011899;28;20220;-68
2022/05/13 10:45:20;;;;;;;7.10;5.67;;;26.20;54.40;;;;;;5011634;28;20245;-69
2022/05/13 10:48:11;;;;;;;4.90;4.50;;;26.30;50.50;;;;;;5045215;28;20195;-70
2022/05/13 10:50:49;;;;;;;6.83;5.63;;;26.30;50.80;;;;;;5025555;28;20183;-70
2022/05/13 10:53:23;;;;;;;7.57;6.23;;;26.20;52.70;;;;;;5031731;28;20179;-70
2022/05/13 10:56:12;;;;;;;6.03;5.50;;;26.10;53.40;;;;;;5022152;28;20273;-70
2022/05/13 10:58:56;;;;;;;7.73;5.20;;;26.00;54.80;;;;;;4991787;28;20184;-70
2022/05/13 11:01:40;;;;;;;6.77;5.67;;;25.80;53.70;;;;;;4991623;28;20184;-69
2022/05/13 11:04:23;;;;;;;5.30;4.80;;;25.60;53.60;;;;;;4994246;28;20246;-69
2022/05/13 11:06:58;;;;;;;7.70;5.77;;;25.50;55.80;;;;;;5010667;28;20253;-69
2022/05/13 11:09:52;;;;;;;5.87;5.27;;;25.60;55.90;;;;;;5015210;28;20263;-69
2022/05/13 11:12:38;;;;;;;5.50;5.00;;;25.60;53.80;;;;;;5015108;28;20183;-70
2022/05/13 11:15:22;;;;;;;5.37;4.87;;;25.70;52.90;;;;;;5013911;28;20191;-71
2022/05/13 11:18:09;;;;;;;6.00;5.47;;;25.80;53.40;;;;;;5015518;28;20207;-70
2022/05/13 11:20:59;;;;;;;6.17;5.60;;;25.80;55.20;;;;;;5016099;28;20187;-69
2022/05/13 11:23:36;;;;;;;5.97;5.40;;;25.90;53.20;;;;;;5014296;28;20211;-68
2022/05/13 11:26:28;;;;;;;5.63;5.20;;;26.10;54.00;;;;;;5015249;28;20210;-68
2022/05/13 11:29:09;;;;;;;5.27;4.77;;;26.00;50.10;;;;;;5013255;28;20197;-72
2022/05/13 11:31:45;;;;;;;5.57;5.17;;;26.00;51.20;;;;;;5015422;28;20187;-70
2022/05/13 11:34:44;;;;;;;5.60;5.10;;;25.90;51.20;;;;;;5013045;28;20187;-70
2022/05/13 11:37:13;;;;;;;5.40;4.90;;;25.90;51.30;;;;;;5014197;28;20223;-70
2022/05/13 11:39:57;;;;;;;5.93;5.33;;;26.20;49.70;;;;;;5029092;28;20297;-68
2022/05/13 11:43:18;;;;;;;5.90;5.40;;;26.30;49.90;;;;;;5000144;28;20192;-69
2022/05/13 11:45:56;;;;;;;5.67;5.20;;;26.50;50.00;;;;;;5027472;28;20208;-69
2022/05/13 11:48:36;;;;;;;6.10;5.50;;;26.60;48.70;;;;;;5012024;28;20270;-68
2022/05/13 11:51:16;;;;;;;6.93;5.33;;;26.50;49.00;;;;;;5029672;28;20179;-74
2022/05/13 11:53:41;;;;;;;6.20;5.57;;;26.30;48.50;;;;;;5033960;28;20206;-70
2022/05/13 11:56:31;;;;;;;5.70;5.20;;;26.10;48.90;;;;;;5033310;28;20205;-71
2022/05/13 11:59:03;;;;;;;6.70;5.73;;;26.00;50.30;;;;;;5013473;28;20176;-72
2022/05/13 12:01:38;;;;;;;6.17;5.37;;;25.70;50.60;;;;;;5006029;28;20192;-68
2022/05/13 12:04:12;;;;;;;5.97;5.43;;;25.50;53.20;;;;;;5014224;28;20187;-68
2022/05/13 12:06:50;;;;;;;5.57;5.07;;;25.50;53.20;;;;;;5015029;28;20246;-68
2022/05/13 12:09:17;;;;;;;5.93;5.40;;;25.40;53.30;;;;;;5014606;28;20266;-68
2022/05/13 12:11:43;;;;;;;6.60;5.70;;;25.30;54.60;;;;;;5011736;28;20195;-68
2022/05/13 12:14:27;;;;;;;5.60;5.03;;;25.30;56.90;;;;;;5008973;28;20199;-70
2022/05/13 12:17:14;;;;;;;8.73;6.07;;;25.30;57.60;;;;;;5008190;28;20198;-69
2022/05/13 12:20:00;;;;;;;7.27;5.43;;;25.50;55.80;;;;;;5011569;28;20206;-69
2022/05/13 12:22:55;;;;;;;5.77;5.13;;;25.70;54.70;;;;;;5003891;28;20198;-68
2022/05/13 12:25:26;;;;;;;5.37;4.87;;;25.90;53.50;;;;;;5012045;28;20208;-68
2022/05/13 12:28:21;;;;;;;7.20;5.43;;;26.00;52.60;;;;;;5014004;28;20280;-69
2022/05/13 12:30:52;;;;;;;7.30;5.23;;;26.10;51.80;;;;;;5047034;28;20211;-65
2022/05/13 12:33:24;;;;;;;6.60;5.90;;;26.20;52.80;;;;;;5013095;28;20191;-70
2022/05/13 12:39:11;;;;;;;5.80;4.87;;;25.90;53.40;;;;;;5013785;28;20199;-69
2022/05/13 12:41:46;;;;;;;9.67;6.87;;;25.80;54.40;;;;;;5014951;28;20211;-74
2022/05/13 12:44:25;;;;;;;8.23;6.13;;;25.60;56.80;;;;;;5015176;28;20171;-71
2022/05/13 12:46:53;;;;;;;6.33;5.50;;;25.40;57.20;;;;;;5014518;28;20184;-69
2022/05/13 12:49:26;;;;;;;7.23;6.30;;;25.10;57.30;;;;;;5013097;28;20180;-70
2022/05/13 12:52:09;;;;;;;6.00;5.40;;;24.80;57.60;;;;;;5014692;28;20188;-69
2022/05/13 12:54:42;;;;;;;5.60;5.10;;;24.70;58.70;;;;;;5015068;28;20218;-70
2022/05/13 12:57:14;;;;;;;6.03;5.53;;;24.60;58.50;;;;;;5014501;28;20184;-70
2022/05/13 12:59:46;;;;;;;5.83;5.33;;;24.40;59.00;;;;;;5012811;28;20183;-65
2022/05/13 13:02:12;;;;;;;5.87;5.37;;;24.20;58.70;;;;;;5006818;28;20210;-67
2022/05/13 13:04:50;;;;;;;5.90;5.40;;;24.00;59.80;;;;;;5030742;28;20216;-67
2022/05/13 13:07:20;;;;;;;5.20;4.70;;;23.70;61.80;;;;;;5014450;28;20191;-66
2022/05/13 13:09:49;;;;;;;6.97;6.10;;;23.50;63.20;;;;;;5030451;28;20231;-66
2022/05/13 13:12:25;;;;;;;7.00;6.17;;;23.40;67.40;;;;;;5013967;28;20194;-67
2022/05/13 13:15:25;;;;;;;7.17;5.13;;;23.10;68.40;;;;;;5012842;28;20183;-66
2022/05/13 13:17:56;;;;;;;9.10;6.37;;;22.80;69.80;;;;;;5003708;28;20227;-65
2022/05/13 13:20:25;;;;;;;10.30;5.83;;;22.30;77.00;;;;;;5012366;28;20195;-70
2022/05/13 13:22:55;;;;;;;7.00;5.67;;;21.90;82.40;;;;;;5013790;28;20199;-71
2022/05/13 13:25:40;;;;;;;8.57;5.30;;;21.60;83.60;;;;;;5012406;28;20239;-73
2022/05/13 13:28:10;;;;;;;7.43;5.20;;;21.20;84.90;;;;;;5012895;28;20171;-74
2022/05/13 13:30:45;;;;;;;5.47;4.90;;;21.00;85.50;;;;;;5012752;28;20191;-73
2022/05/13 13:33:11;;;;;;;4.30;3.90;;;20.70;85.90;;;;;;5010938;28;20237;-69
2022/05/13 13:35:44;;;;;;;6.90;4.90;;;20.50;86.10;;;;;;5007521;28;20249;-71
2022/05/13 13:38:12;;;;;;;4.60;4.20;;;20.30;86.20;;;;;;5011144;28;20191;-71
2022/05/13 13:40:47;;;;;;;5.23;4.73;;;20.20;86.40;;;;;;5011427;28;20238;-74